Time;durP1;ratioP1;P1;durP2;ratioP2;P2;SDS_P1;SDS_P2;PMS_P1;PMS_P2;Temp;Humidity;BMP_temperature;BMP_pressure;BME280_temperature;BME280_humidity;BME280_pressure;Samples;Min_cycle;Max_cycle;Signal;HPM_P1;HPM_P2
2021/09/27 09:08:44;;;;;;;3.78;1.63;;;19.10;99.90;;;;;;2968625;23;20228;-69
2021/09/27 09:11:19;;;;;;;2.00;1.23;;;19.30;99.90;;;;;;4954404;29;20207;-69
2021/09/27 09:13:49;;;;;;;3.40;1.50;;;19.50;99.90;;;;;;4955727;29;20211;-69
2021/09/27 09:16:19;;;;;;;1.40;1.25;;;19.60;99.90;;;;;;4954828;28;20278;-69
2021/09/27 09:18:49;;;;;;;2.17;1.40;;;19.70;99.90;;;;;;4954794;29;20219;-69
2021/09/27 09:21:20;;;;;;;2.28;1.30;;;19.70;99.90;;;;;;4954940;29;20214;-70
2021/09/27 09:23:52;;;;;;;2.45;1.17;;;19.90;99.90;;;;;;4954829;29;20595;-69
2021/09/27 09:26:24;;;;;;;3.05;1.27;;;20.10;99.90;;;;;;4954905;28;20713;-70
2021/09/27 09:28:53;;;;;;;2.65;1.45;;;20.20;99.90;;;;;;4955316;29;20216;-70
2021/09/27 09:31:24;;;;;;;2.85;1.40;;;20.40;99.90;;;;;;4954778;29;20204;-69
2021/09/27 09:33:55;;;;;;;3.95;2.05;;;20.40;99.90;;;;;;4954972;29;20216;-69
2021/09/27 09:36:26;;;;;;;5.72;1.60;;;20.40;99.90;;;;;;4954720;28;20250;-69
2021/09/27 09:38:55;;;;;;;1.77;1.15;;;20.40;99.90;;;;;;4954993;29;20566;-69
2021/09/27 09:41:22;;;;;;;1.98;1.20;;;20.30;99.90;;;;;;4954382;29;20218;-69
2021/09/27 09:43:51;;;;;;;1.90;1.40;;;20.10;99.90;;;;;;4954635;29;20586;-69
2021/09/27 09:46:29;;;;;;;1.98;1.13;;;19.80;99.90;;;;;;4954791;28;20587;-69
2021/09/27 09:49:04;;;;;;;1.65;1.30;;;19.60;99.90;;;;;;4955100;29;20544;-69
2021/09/27 09:51:36;;;;;;;2.95;1.15;;;19.50;99.90;;;;;;4954799;29;20726;-69
2021/09/27 09:54:13;;;;;;;1.70;1.08;;;19.40;99.90;;;;;;4955242;28;20662;-69
2021/09/27 09:56:43;;;;;;;2.17;1.20;;;19.30;99.90;;;;;;4958280;28;20611;-69
2021/09/27 09:59:26;;;;;;;1.40;1.20;;;19.30;99.90;;;;;;4958546;29;20211;-69
2021/09/27 10:01:55;;;;;;;1.65;1.15;;;19.30;99.90;;;;;;4958345;29;20519;-69
2021/09/27 10:04:25;;;;;;;1.83;1.20;;;19.30;99.90;;;;;;4958164;29;20212;-69
2021/09/27 10:07:05;;;;;;;1.77;1.30;;;19.30;99.90;;;;;;4958283;28;20239;-70
2021/09/27 10:09:35;;;;;;;1.80;1.35;;;19.40;99.90;;;;;;4957420;29;20263;-70
2021/09/27 10:12:05;;;;;;;1.80;1.20;;;19.30;99.90;;;;;;4957799;29;20218;-70
2021/09/27 10:14:41;;;;;;;3.80;1.58;;;19.30;99.90;;;;;;4957699;29;20211;-70
2021/09/27 10:17:24;;;;;;;1.93;1.13;;;19.40;99.90;;;;;;4958082;28;20223;-70
2021/09/27 10:19:56;;;;;;;2.60;1.30;;;19.60;99.90;;;;;;4957657;29;20212;-70
2021/09/27 10:22:28;;;;;;;1.75;1.05;;;19.80;99.90;;;;;;4957478;29;20236;-70
2021/09/27 10:24:59;;;;;;;1.70;1.00;;;19.90;99.90;;;;;;4957268;28;20236;-69
2021/09/27 10:27:32;;;;;;;1.73;1.10;;;20.00;99.90;;;;;;4957178;29;20267;-69
2021/09/27 10:30:02;;;;;;;1.85;0.98;;;20.00;99.90;;;;;;4956820;29;20212;-70
2021/09/27 10:32:37;;;;;;;2.03;1.30;;;19.90;99.90;;;;;;4956614;29;20212;-69
2021/09/27 10:35:09;;;;;;;4.28;1.35;;;20.00;99.90;;;;;;4956795;28;20218;-69
2021/09/27 10:37:37;;;;;;;2.97;1.15;;;20.00;99.90;;;;;;4956898;29;20659;-70
2021/09/27 10:40:11;;;;;;;1.25;0.90;;;20.20;99.90;;;;;;4956673;29;20627;-71
2021/09/27 10:42:43;;;;;;;2.53;1.20;;;20.30;99.90;;;;;;4956627;29;20227;-70
2021/09/27 10:45:13;;;;;;;1.60;1.00;;;20.60;99.90;;;;;;4956808;28;20705;-70
2021/09/27 10:47:44;;;;;;;1.83;0.82;;;20.70;99.90;;;;;;4956637;29;20208;-70
2021/09/27 10:50:16;;;;;;;1.80;1.10;;;20.70;99.90;;;;;;4954373;29;20208;-69
2021/09/27 10:52:55;;;;;;;1.35;0.90;;;20.70;99.90;;;;;;4957185;29;20208;-69
2021/09/27 10:55:28;;;;;;;2.53;0.95;;;20.70;99.90;;;;;;4956744;29;20231;-69
2021/09/27 10:57:58;;;;;;;2.97;1.30;;;20.80;99.90;;;;;;4956988;29;20211;-69
2021/09/27 11:00:36;;;;;;;1.27;0.98;;;21.10;99.90;;;;;;4957169;29;20303;-69
2021/09/27 11:03:12;;;;;;;1.00;0.70;;;21.40;99.90;;;;;;4956845;29;20294;-71
2021/09/27 11:05:54;;;;;;;1.63;1.00;;;21.50;99.90;;;;;;4956062;28;20239;-71
2021/09/27 11:08:42;;;;;;;1.52;0.82;;;21.50;99.90;;;;;;4955093;28;20208;-70
2021/09/27 11:11:36;;;;;;;2.30;0.93;;;21.50;99.90;;;;;;4954566;29;20207;-74
2021/09/27 11:14:28;;;;;;;3.50;1.10;;;21.40;99.90;;;;;;4953815;29;20212;-71
2021/09/27 11:17:14;;;;;;;1.23;0.80;;;21.40;99.90;;;;;;4955211;29;20246;-71
2021/09/27 11:19:43;;;;;;;1.48;0.98;;;21.30;99.90;;;;;;4956294;29;20204;-70
2021/09/27 11:22:39;;;;;;;1.42;0.75;;;21.10;99.90;;;;;;4956635;29;20211;-70
2021/09/27 11:25:11;;;;;;;3.22;0.75;;;21.00;99.90;;;;;;4936207;29;20738;-70
2021/09/27 11:27:40;;;;;;;1.75;0.63;;;21.00;99.90;;;;;;4956727;29;20570;-70
2021/09/27 11:30:38;;;;;;;1.02;0.85;;;21.20;99.90;;;;;;4956606;29;20218;-70
2021/09/27 11:33:17;;;;;;;2.03;1.08;;;21.20;99.90;;;;;;4956589;29;20570;-69
2021/09/27 11:35:46;;;;;;;1.10;0.77;;;21.30;99.90;;;;;;4956097;29;20234;-70
2021/09/27 11:38:30;;;;;;;1.70;0.75;;;21.40;99.90;;;;;;4956321;29;20204;-71
2021/09/27 11:41:21;;;;;;;1.83;0.82;;;21.30;99.90;;;;;;4955885;29;20230;-71
2021/09/27 11:43:56;;;;;;;1.38;0.80;;;21.30;99.90;;;;;;4954071;29;20224;-70
2021/09/27 11:46:26;;;;;;;1.80;0.70;;;21.20;99.90;;;;;;4955861;29;20233;-70
2021/09/27 11:49:02;;;;;;;1.48;0.90;;;21.20;99.90;;;;;;4955798;29;20667;-70
2021/09/27 11:51:40;;;;;;;3.58;0.82;;;21.00;99.90;;;;;;4956208;29;20258;-69
2021/09/27 11:54:27;;;;;;;2.78;0.82;;;21.00;99.90;;;;;;4956014;29;20258;-70
2021/09/27 11:57:05;;;;;;;3.08;1.00;;;21.00;99.90;;;;;;4955611;29;20227;-70
2021/09/27 11:59:44;;;;;;;2.30;0.90;;;20.90;99.90;;;;;;4956196;29;20258;-70
2021/09/27 12:02:29;;;;;;;2.03;0.90;;;20.80;99.90;;;;;;4956311;29;20208;-70
2021/09/27 12:05:10;;;;;;;1.30;0.70;;;20.90;99.90;;;;;;4956157;29;20623;-70
2021/09/27 12:07:41;;;;;;;0.90;0.60;;;20.70;99.90;;;;;;4955593;29;20212;-69
2021/09/27 12:10:15;;;;;;;1.52;0.60;;;20.90;99.90;;;;;;4955717;29;20222;-70
2021/09/27 12:12:43;;;;;;;1.25;0.70;;;20.90;99.90;;;;;;4955672;29;20208;-70
2021/09/27 12:15:14;;;;;;;0.73;0.60;;;20.90;99.90;;;;;;4955654;29;20243;-70
2021/09/27 12:17:42;;;;;;;2.50;0.70;;;20.80;99.90;;;;;;4955016;28;20571;-70
2021/09/27 12:20:14;;;;;;;0.98;0.65;;;20.50;99.90;;;;;;4955829;29;20730;-70
2021/09/27 12:22:47;;;;;;;2.03;0.70;;;20.30;99.90;;;;;;4956071;29;20207;-70
2021/09/27 12:25:19;;;;;;;1.63;0.88;;;20.20;99.90;;;;;;4955764;29;20231;-70
2021/09/27 12:27:54;;;;;;;1.60;0.80;;;20.00;99.90;;;;;;4955659;29;20231;-70
2021/09/27 12:30:25;;;;;;;3.03;1.00;;;19.70;99.90;;;;;;4955569;29;20551;-69
2021/09/27 12:32:56;;;;;;;1.13;0.90;;;19.50;99.90;;;;;;4955759;29;20226;-70
2021/09/27 12:35:29;;;;;;;1.60;0.82;;;19.30;99.90;;;;;;4955579;29;20232;-70
2021/09/27 12:37:57;;;;;;;1.52;1.08;;;19.10;99.90;;;;;;4955564;29;20208;-69
2021/09/27 12:40:30;;;;;;;1.05;0.90;;;19.00;99.90;;;;;;4955496;29;20212;-70
2021/09/27 12:43:04;;;;;;;1.63;0.90;;;18.90;99.90;;;;;;4955693;29;20236;-70
2021/09/27 12:45:35;;;;;;;1.10;0.80;;;18.80;99.90;;;;;;4955662;29;20232;-69
2021/09/27 12:48:06;;;;;;;0.90;0.80;;;18.70;99.90;;;;;;4955251;29;20313;-70
2021/09/27 12:50:34;;;;;;;1.00;0.60;;;18.60;99.90;;;;;;4955135;29;20214;-69
2021/09/27 12:53:04;;;;;;;1.33;0.60;;;18.50;99.90;;;;;;4955205;29;20216;-69
2021/09/27 12:55:41;;;;;;;0.93;0.70;;;18.50;99.90;;;;;;4955253;29;20228;-69
2021/09/27 12:58:17;;;;;;;0.80;0.73;;;18.50;99.90;;;;;;4955482;29;20230;-70
2021/09/27 13:00:46;;;;;;;2.10;0.60;;;18.50;99.90;;;;;;4954635;29;20298;-70
2021/09/27 13:03:21;;;;;;;0.67;0.60;;;18.50;99.90;;;;;;4949930;28;20238;-71
2021/09/27 13:05:52;;;;;;;1.00;0.50;;;18.40;99.90;;;;;;4954761;28;20234;-71
2021/09/27 13:08:25;;;;;;;2.80;0.60;;;18.30;99.90;;;;;;4954465;29;20298;-70
2021/09/27 13:10:56;;;;;;;0.87;0.60;;;18.20;99.90;;;;;;4954381;29;20212;-71
2021/09/27 13:13:30;;;;;;;0.53;0.40;;;18.20;99.90;;;;;;4954149;29;20303;-71
2021/09/27 13:16:01;;;;;;;3.00;1.57;;;18.30;99.90;;;;;;4952957;29;20305;-72
2021/09/27 13:18:50;;;;;;;0.90;0.50;;;18.30;99.90;;;;;;4950638;29;20200;-77
2021/09/27 13:21:24;;;;;;;1.50;0.50;;;18.30;99.90;;;;;;4940856;29;20196;-86
2021/09/27 13:23:56;;;;;;;0.97;0.50;;;18.20;99.90;;;;;;4952565;29;20223;-84
2021/09/27 13:26:32;;;;;;;1.20;0.50;;;18.30;99.90;;;;;;4950776;29;20226;-74
2021/09/27 13:29:01;;;;;;;1.40;0.60;;;18.20;99.90;;;;;;4952348;28;20674;-74
2021/09/27 13:31:32;;;;;;;1.63;0.30;;;18.10;99.90;;;;;;4955758;29;20298;-73
2021/09/27 13:34:02;;;;;;;1.53;0.40;;;17.90;99.90;;;;;;4954876;29;20295;-76
2021/09/27 13:36:34;;;;;;;4.63;0.47;;;17.90;99.90;;;;;;4956879;29;20224;-72
2021/09/27 13:39:08;;;;;;;1.73;0.60;;;17.80;99.90;;;;;;4957120;29;20212;-73
2021/09/27 13:41:47;;;;;;;2.33;0.57;;;17.70;99.90;;;;;;4956811;29;20298;-73
2021/09/27 13:44:31;;;;;;;2.00;0.40;;;17.70;99.90;;;;;;4957068;29;20698;-83
2021/09/27 13:47:00;;;;;;;0.67;0.40;;;17.70;99.90;;;;;;4956440;29;20416;-73
2021/09/27 13:49:27;;;;;;;1.33;0.40;;;17.70;99.90;;;;;;4956945;29;20765;-77
2021/09/27 13:51:54;;;;;;;0.80;0.50;;;17.70;99.90;;;;;;4957142;29;20208;-75
2021/09/27 13:54:21;;;;;;;2.63;0.50;;;17.60;99.90;;;;;;4956056;28;20212;-77
2021/09/27 13:56:48;;;;;;;2.03;0.40;;;17.60;99.90;;;;;;4966858;28;20220;-73
2021/09/27 13:59:15;;;;;;;2.70;0.50;;;17.70;99.90;;;;;;4956175;29;20214;-75
2021/09/27 14:01:42;;;;;;;0.80;0.40;;;17.50;99.90;;;;;;4955691;29;20681;-73
2021/09/27 14:04:10;;;;;;;3.70;0.50;;;17.50;99.90;;;;;;4956313;29;20249;-74
2021/09/27 14:06:37;;;;;;;1.40;0.50;;;17.60;99.90;;;;;;4955695;28;20304;-73
2021/09/27 14:09:04;;;;;;;2.33;0.50;;;17.70;99.90;;;;;;4955328;29;20303;-76
2021/09/27 14:11:33;;;;;;;1.33;0.50;;;17.70;99.90;;;;;;4955907;29;20219;-77
2021/09/27 14:14:00;;;;;;;3.00;0.43;;;17.70;99.90;;;;;;4955415;29;20659;-80
2021/09/27 14:16:27;;;;;;;3.63;0.50;;;17.70;99.90;;;;;;4955093;29;20223;-81
2021/09/27 14:18:54;;;;;;;1.03;0.40;;;17.90;99.90;;;;;;4955995;29;20730;-76
2021/09/27 14:21:25;;;;;;;2.77;0.50;;;17.80;99.90;;;;;;4956615;29;20203;-71
2021/09/27 14:23:54;;;;;;;1.53;0.43;;;17.80;99.90;;;;;;4955580;29;20267;-76
2021/09/27 14:26:22;;;;;;;2.60;0.40;;;17.80;99.90;;;;;;4955524;28;20228;-80
2021/09/27 14:28:50;;;;;;;2.30;0.57;;;17.80;99.90;;;;;;4955636;29;20214;-74
2021/09/27 14:31:18;;;;;;;1.90;0.40;;;17.90;99.90;;;;;;4955452;29;20621;-73
2021/09/27 14:33:45;;;;;;;1.50;0.50;;;18.00;99.90;;;;;;4956236;29;20215;-73
2021/09/27 14:36:13;;;;;;;4.20;0.60;;;17.90;99.90;;;;;;4955888;28;20236;-73
2021/09/27 14:38:43;;;;;;;1.53;0.50;;;17.90;99.90;;;;;;4955282;29;20212;-73
2021/09/27 14:41:13;;;;;;;1.20;0.47;;;17.80;99.90;;;;;;4955213;28;20219;-79
2021/09/27 14:43:40;;;;;;;5.53;1.00;;;17.80;99.90;;;;;;4955575;29;20315;-76
2021/09/27 14:46:07;;;;;;;4.87;1.13;;;17.90;99.90;;;;;;4954893;29;20235;-79
2021/09/27 14:48:34;;;;;;;1.70;0.40;;;18.00;99.90;;;;;;4955629;29;20215;-80
2021/09/27 14:51:01;;;;;;;7.23;0.83;;;18.10;99.90;;;;;;4955354;29;20218;-77
2021/09/27 14:53:30;;;;;;;6.33;0.90;;;18.00;99.90;;;;;;4954794;29;20287;-74
2021/09/27 14:55:59;;;;;;;2.33;0.40;;;18.00;99.90;;;;;;4955222;28;20302;-74
2021/09/27 14:58:30;;;;;;;1.73;0.37;;;18.10;99.90;;;;;;4955959;29;20223;-74
2021/09/27 15:00:57;;;;;;;3.33;0.60;;;18.00;99.90;;;;;;4954663;29;20220;-74
2021/09/27 15:03:24;;;;;;;4.07;0.80;;;17.90;99.90;;;;;;4955151;29;20304;-72
2021/09/27 15:05:52;;;;;;;1.37;0.40;;;17.90;99.90;;;;;;4955530;29;20231;-75
2021/09/27 15:08:19;;;;;;;4.90;0.57;;;18.10;99.90;;;;;;4954510;29;20216;-71
2021/09/27 15:10:48;;;;;;;4.50;0.70;;;18.20;99.90;;;;;;4955484;29;20207;-71
2021/09/27 15:13:18;;;;;;;2.93;0.70;;;18.20;99.90;;;;;;4955146;29;20204;-73
2021/09/27 15:15:46;;;;;;;5.90;0.57;;;18.00;99.90;;;;;;4954759;28;20603;-76
2021/09/27 15:18:16;;;;;;;2.57;0.50;;;18.10;99.90;;;;;;4954992;29;20214;-71
2021/09/27 15:20:43;;;;;;;2.80;0.53;;;18.30;99.90;;;;;;4954802;28;20214;-75
2021/09/27 15:23:10;;;;;;;2.33;0.40;;;18.30;99.90;;;;;;4953814;28;20218;-78
2021/09/27 15:25:48;;;;;;;4.90;0.60;;;18.30;99.90;;;;;;4955044;29;20240;-74
2021/09/27 15:28:17;;;;;;;2.97;0.60;;;18.20;99.90;;;;;;4955378;29;20208;-76
2021/09/27 15:30:45;;;;;;;6.07;0.50;;;18.20;99.90;;;;;;4954611;29;20223;-71
2021/09/27 15:33:12;;;;;;;4.77;0.80;;;18.10;99.90;;;;;;4954963;29;20659;-76
2021/09/27 15:35:40;;;;;;;6.23;0.70;;;18.10;99.90;;;;;;4954613;29;20227;-71
2021/09/27 15:38:13;;;;;;;2.10;0.53;;;18.00;99.90;;;;;;4954375;29;20214;-71
2021/09/27 15:40:41;;;;;;;4.63;0.80;;;18.00;99.90;;;;;;4954810;29;20219;-73
2021/09/27 15:43:08;;;;;;;0.67;0.20;;;17.90;99.90;;;;;;4954396;29;20307;-78
2021/09/27 15:45:36;;;;;;;3.23;0.50;;;18.00;99.90;;;;;;4953848;28;20243;-76
2021/09/27 15:48:04;;;;;;;1.73;0.30;;;17.90;99.90;;;;;;4953916;29;20242;-71
2021/09/27 15:50:32;;;;;;;5.00;0.40;;;17.90;99.90;;;;;;4954493;29;20681;-71
2021/09/27 15:52:59;;;;;;;2.13;0.60;;;17.80;99.90;;;;;;4952833;28;20215;-73
2021/09/27 15:55:26;;;;;;;0.90;0.30;;;17.80;99.90;;;;;;4954349;28;20320;-77
2021/09/27 15:57:53;;;;;;;1.77;0.30;;;17.70;99.90;;;;;;4953897;29;20290;-73
2021/09/27 16:00:20;;;;;;;5.03;0.57;;;17.60;99.90;;;;;;4954006;29;20303;-78
2021/09/27 16:02:49;;;;;;;1.10;0.30;;;17.60;99.90;;;;;;4953405;29;20667;-77
2021/09/27 16:05:16;;;;;;;3.00;0.30;;;17.60;99.90;;;;;;4954116;29;20244;-74
2021/09/27 16:07:43;;;;;;;0.73;0.40;;;17.60;99.90;;;;;;4953683;29;20671;-73
2021/09/27 16:10:11;;;;;;;2.07;0.40;;;17.60;99.90;;;;;;4953912;29;20230;-85
2021/09/27 16:12:38;;;;;;;1.50;0.50;;;17.50;99.90;;;;;;4953187;29;20216;-75
2021/09/27 16:15:06;;;;;;;3.20;0.30;;;17.40;99.90;;;;;;4952826;28;20304;-78
2021/09/27 16:17:34;;;;;;;0.63;0.40;;;17.30;99.90;;;;;;4954306;29;20219;-78
2021/09/27 16:20:04;;;;;;;2.47;0.27;;;17.30;99.90;;;;;;4953895;29;20735;-73
2021/09/27 16:22:30;;;;;;;2.30;0.20;;;17.30;99.90;;;;;;4953307;29;20222;-75
2021/09/27 16:24:57;;;;;;;0.43;0.20;;;17.20;99.90;;;;;;4953921;29;20242;-76
2021/09/27 16:27:24;;;;;;;0.97;0.40;;;17.10;99.90;;;;;;4953848;29;20212;-72
2021/09/27 16:29:51;;;;;;;3.77;0.50;;;17.00;99.90;;;;;;4953028;29;20575;-77
2021/09/27 16:32:18;;;;;;;4.80;0.70;;;16.90;99.90;;;;;;4953631;29;20578;-69
2021/09/27 16:34:44;;;;;;;1.53;0.27;;;16.90;99.90;;;;;;4953452;29;20571;-72
2021/09/27 16:37:13;;;;;;;2.63;0.30;;;16.90;99.90;;;;;;4953670;28;20320;-71
2021/09/27 16:39:40;;;;;;;3.73;0.40;;;16.80;99.90;;;;;;4954097;29;20250;-72
2021/09/27 16:42:08;;;;;;;1.67;0.40;;;16.90;99.90;;;;;;4952846;29;20204;-75
2021/09/27 16:44:37;;;;;;;0.57;0.13;;;16.80;99.90;;;;;;4952872;29;20236;-74
2021/09/27 16:47:06;;;;;;;2.30;0.60;;;16.90;99.90;;;;;;4953280;28;20243;-72
2021/09/27 16:49:33;;;;;;;3.30;0.80;;;16.90;99.90;;;;;;4955030;29;20290;-72
2021/09/27 16:52:00;;;;;;;4.53;0.40;;;16.80;99.90;;;;;;4954105;29;20226;-71
2021/09/27 16:54:28;;;;;;;1.70;0.20;;;16.80;99.90;;;;;;4954745;29;20303;-71
2021/09/27 16:56:55;;;;;;;1.53;0.20;;;16.70;99.90;;;;;;4954109;29;20224;-73
2021/09/27 16:59:22;;;;;;;2.13;0.50;;;16.80;99.90;;;;;;4954301;29;20256;-77
2021/09/27 17:01:49;;;;;;;0.97;0.40;;;16.70;99.90;;;;;;4954410;29;20218;-76
2021/09/27 17:04:17;;;;;;;0.80;0.20;;;16.70;99.90;;;;;;4954201;28;20302;-75
2021/09/27 17:06:44;;;;;;;1.90;0.23;;;16.60;99.90;;;;;;4954407;29;20239;-74
2021/09/27 17:09:13;;;;;;;1.77;0.40;;;16.60;99.90;;;;;;4953770;29;20220;-71
2021/09/27 17:11:42;;;;;;;2.13;0.50;;;16.50;99.90;;;;;;4955005;29;20684;-77
2021/09/27 17:14:29;;;;;;;3.83;0.40;;;16.50;99.90;;;;;;4954627;29;20655;-72
2021/09/27 17:19:40;;;;;;;0.40;0.20;;;16.60;99.90;;;;;;4954793;29;20255;-76
2021/09/27 17:22:11;;;;;;;3.07;0.40;;;16.70;99.90;;;;;;4955157;29;20295;-76
2021/09/27 17:24:38;;;;;;;2.20;0.57;;;16.70;99.90;;;;;;4954447;29;20234;-76
2021/09/27 17:27:09;;;;;;;3.60;0.50;;;16.80;99.90;;;;;;4954538;28;20325;-75
2021/09/27 17:29:38;;;;;;;2.80;0.70;;;16.80;99.90;;;;;;4954751;29;20575;-73
2021/09/27 17:32:06;;;;;;;2.00;0.50;;;16.80;99.90;;;;;;4954084;29;20222;-75
2021/09/27 17:34:33;;;;;;;2.93;0.60;;;16.80;99.90;;;;;;4954383;29;20295;-76
2021/09/27 17:37:00;;;;;;;1.93;0.43;;;16.80;99.90;;;;;;4954384;28;20224;-70
2021/09/27 17:39:27;;;;;;;4.63;1.27;;;16.90;99.90;;;;;;4954712;29;20208;-75
2021/09/27 17:41:55;;;;;;;1.40;0.60;;;16.90;99.90;;;;;;4955037;29;20214;-75
2021/09/27 17:44:23;;;;;;;2.23;0.57;;;16.90;99.90;;;;;;4954541;29;20233;-75
2021/09/27 17:46:50;;;;;;;0.97;0.60;;;16.90;99.90;;;;;;4954119;29;20232;-75
2021/09/27 17:49:19;;;;;;;1.43;0.40;;;16.80;99.90;;;;;;4955151;29;20214;-76
2021/09/27 17:51:49;;;;;;;2.43;0.77;;;16.60;99.90;;;;;;4954587;29;20262;-74
2021/09/27 17:54:17;;;;;;;2.37;0.53;;;16.50;99.90;;;;;;4954227;29;20208;-76
2021/09/27 17:56:44;;;;;;;0.97;0.40;;;16.40;99.90;;;;;;4954425;29;20224;-71
2021/09/27 17:59:11;;;;;;;0.80;0.40;;;16.20;99.90;;;;;;4954637;29;20578;-74
2021/09/27 18:01:40;;;;;;;1.70;0.43;;;16.20;99.90;;;;;;4954046;29;20683;-76
2021/09/27 18:04:09;;;;;;;2.53;0.70;;;16.00;99.90;;;;;;4954332;29;20206;-76
2021/09/27 18:06:36;;;;;;;2.60;0.70;;;15.80;99.90;;;;;;4944471;28;20260;-76
2021/09/27 18:09:04;;;;;;;1.60;0.70;;;15.80;99.90;;;;;;4942895;29;20224;-74
2021/09/27 18:11:31;;;;;;;3.47;0.80;;;15.60;99.90;;;;;;4942419;29;20205;-71
2021/09/27 18:13:58;;;;;;;2.07;0.60;;;15.60;99.90;;;;;;4939587;29;20571;-76
2021/09/27 18:16:25;;;;;;;2.70;1.00;;;15.50;99.90;;;;;;4951598;28;20724;-70
2021/09/27 18:18:53;;;;;;;1.67;0.80;;;15.50;99.90;;;;;;4953553;29;20204;-71
2021/09/27 18:21:19;;;;;;;2.40;0.50;;;15.50;99.90;;;;;;4952984;29;20222;-70
2021/09/27 18:23:46;;;;;;;4.40;0.90;;;15.50;99.90;;;;;;4954002;29;20575;-70
2021/09/27 18:26:13;;;;;;;3.23;0.70;;;15.50;99.90;;;;;;4954259;28;20567;-71
2021/09/27 18:28:41;;;;;;;27.80;12.23;;;15.40;99.90;;;;;;4954842;29;20208;-70
2021/09/27 18:31:09;;;;;;;6.33;2.83;;;15.40;99.90;;;;;;4941451;29;20208;-70
2021/09/27 18:33:36;;;;;;;2.53;1.00;;;15.40;99.90;;;;;;4954100;29;20231;-70
2021/09/27 18:36:05;;;;;;;4.63;0.63;;;15.40;99.90;;;;;;4952083;28;20230;-70
2021/09/27 18:38:32;;;;;;;1.57;0.63;;;15.20;99.90;;;;;;4954155;29;20566;-70
2021/09/27 18:41:02;;;;;;;1.60;0.53;;;15.20;99.90;;;;;;4946302;29;20208;-70
2021/09/27 18:43:29;;;;;;;1.83;0.60;;;15.10;99.90;;;;;;4939672;29;20201;-70
2021/09/27 18:45:56;;;;;;;1.00;0.53;;;15.10;99.90;;;;;;4948721;29;20240;-70
2021/09/27 18:48:23;;;;;;;1.30;0.50;;;14.90;99.90;;;;;;4947903;29;20215;-71
2021/09/27 18:50:52;;;;;;;3.33;0.70;;;14.90;99.90;;;;;;4945856;29;20209;-69
2021/09/27 18:53:23;;;;;;;0.87;0.60;;;14.80;99.90;;;;;;4942719;29;20304;-70
2021/09/27 18:55:50;;;;;;;1.23;0.60;;;14.80;99.90;;;;;;4947300;28;20220;-71
2021/09/27 18:58:17;;;;;;;2.50;0.70;;;14.80;99.90;;;;;;4948167;29;20208;-70
2021/09/27 19:00:44;;;;;;;1.37;0.43;;;14.80;99.90;;;;;;4947143;29;20200;-70
2021/09/27 19:03:13;;;;;;;1.00;0.40;;;14.80;99.90;;;;;;4950169;29;20212;-70
2021/09/27 19:05:40;;;;;;;2.20;0.50;;;14.80;99.90;;;;;;4951745;28;20318;-70
2021/09/27 19:08:07;;;;;;;2.50;0.60;;;14.90;99.90;;;;;;4947404;29;20692;-71
2021/09/27 19:10:36;;;;;;;2.10;0.43;;;14.90;99.90;;;;;;4950753;29;20208;-70
2021/09/27 19:13:07;;;;;;;2.80;0.40;;;14.80;99.90;;;;;;4942358;29;20212;-70
2021/09/27 19:15:36;;;;;;;2.93;0.60;;;14.70;99.90;;;;;;4949569;28;20636;-70
2021/09/27 19:18:02;;;;;;;2.77;0.70;;;14.70;99.90;;;;;;4948758;29;20208;-69
2021/09/27 19:20:29;;;;;;;3.70;0.80;;;14.70;99.90;;;;;;4952036;29;20208;-70
2021/09/27 19:22:56;;;;;;;2.10;0.83;;;14.70;99.90;;;;;;4947405;29;20209;-71
2021/09/27 19:25:23;;;;;;;2.10;0.40;;;14.70;99.90;;;;;;4941645;29;20599;-70
2021/09/27 19:27:51;;;;;;;6.77;0.60;;;14.60;99.90;;;;;;4947459;29;20220;-70
2021/09/27 19:30:18;;;;;;;2.20;0.83;;;14.60;99.90;;;;;;4952755;29;20212;-70
2021/09/27 19:32:45;;;;;;;1.70;0.50;;;14.60;99.90;;;;;;4941557;29;20560;-70
2021/09/27 19:35:13;;;;;;;5.23;0.60;;;14.60;99.90;;;;;;4949494;28;20584;-71
2021/09/27 19:37:40;;;;;;;3.10;0.40;;;14.60;99.90;;;;;;4952784;29;20210;-70
2021/09/27 19:40:10;;;;;;;3.40;0.90;;;14.50;99.90;;;;;;4948370;29;20678;-70
2021/09/27 19:42:38;;;;;;;2.83;0.53;;;14.40;99.90;;;;;;4943798;29;20292;-69
2021/09/27 19:45:10;;;;;;;3.60;0.77;;;14.50;99.90;;;;;;4939514;29;20226;-70
2021/09/27 19:47:37;;;;;;;4.70;0.53;;;14.50;99.90;;;;;;4944257;29;20617;-71
2021/09/27 19:50:05;;;;;;;1.23;0.70;;;14.40;99.90;;;;;;4946168;29;20215;-70
2021/09/27 19:52:32;;;;;;;1.90;0.60;;;14.40;99.90;;;;;;4948097;29;20204;-71
2021/09/27 19:54:59;;;;;;;2.30;0.40;;;14.30;99.90;;;;;;4945522;28;20208;-72
2021/09/27 19:57:26;;;;;;;1.13;0.50;;;14.20;99.90;;;;;;4941589;29;20207;-71
2021/09/27 19:59:53;;;;;;;1.27;0.40;;;14.20;99.90;;;;;;4947254;29;20205;-71
2021/09/27 20:02:21;;;;;;;1.03;0.50;;;14.10;99.90;;;;;;4945506;29;20234;-70
2021/09/27 20:04:48;;;;;;;1.63;0.50;;;14.10;99.90;;;;;;4951444;29;20208;-75
2021/09/27 20:07:14;;;;;;;1.63;0.50;;;14.10;99.90;;;;;;4947033;29;20786;-71
2021/09/27 20:09:41;;;;;;;0.70;0.30;;;14.10;99.90;;;;;;4943261;29;20671;-71
2021/09/27 20:12:09;;;;;;;2.63;0.60;;;14.00;99.90;;;;;;4944742;29;20217;-70
2021/09/27 20:14:36;;;;;;;3.00;0.80;;;14.00;99.90;;;;;;4941225;29;20271;-70
2021/09/27 20:17:03;;;;;;;1.43;0.60;;;13.90;99.90;;;;;;4944303;28;20235;-71
2021/09/27 20:19:31;;;;;;;1.33;0.60;;;13.80;99.90;;;;;;4946419;29;20208;-71
2021/09/27 20:21:58;;;;;;;2.80;0.70;;;13.80;99.90;;;;;;4946638;29;20212;-71
2021/09/27 20:24:27;;;;;;;2.83;0.50;;;13.80;99.90;;;;;;4947741;29;20579;-71
2021/09/27 20:26:53;;;;;;;4.60;0.60;;;13.70;99.90;;;;;;4940174;29;20239;-71
2021/09/27 20:29:20;;;;;;;4.53;1.70;;;13.80;99.90;;;;;;4943012;29;20206;-73
2021/09/27 20:31:47;;;;;;;2.70;1.30;;;13.80;99.90;;;;;;4940412;29;20213;-70
2021/09/27 20:34:14;;;;;;;5.27;0.90;;;13.80;99.90;;;;;;4946573;29;20208;-70
2021/09/27 20:36:43;;;;;;;2.73;0.50;;;13.70;99.90;;;;;;4950008;28;20237;-70
2021/09/27 20:39:10;;;;;;;1.93;0.50;;;13.70;99.90;;;;;;4941049;28;20215;-82
2021/09/27 20:41:37;;;;;;;1.27;0.40;;;13.70;99.90;;;;;;4938780;29;20208;-74
